Main page
METAR-TAF:

METAR-TAF

Airports :

Lismore Airport

Lismore, Australia

latitude: 28-49-41S, longitude: 153-15-36E, elevation: 11 m

Current weather observation

The report was made 1 hour and 19 minutes ago, at 13:00 UTC
Calm wind
Temperature 20°C
Humidity 88%
Pressure 1021 hPa
Visibility 10 km or more

METAR: YLIS 221300Z AUTO 00000KT 9999 // NCD 20/18 Q1021

Time: 01:19 (14:19 UTC)


TAF: missing

Weather observations and forecasts of more than 4000 airports (METAR and TAF reports).

The available stations are represented by yellow and red dots on the map.

Hover mouse over dot to see the name of the station.

Then click to see weather observations and forecasts.

To change the map : click on the green buttons with a black cross to zoom in, on the green button with a dash to zoom out, or on the green arrows for adjacent maps.


METAR-TAF: